Time;durP1;ratioP1;P1;durP2;ratioP2;P2;SDS_P1;SDS_P2;PMS_P1;PMS_P2;Temp;Humidity;BMP_temperature;BMP_pressure;BME280_temperature;BME280_humidity;BME280_pressure;Samples;Min_cycle;Max_cycle;Signal;HPM_P1;HPM_P2
2023/08/15 00:00:54;;;;;;;5.77;4.83;;;26.80;92.60;;;;;;5037894;28;20846;-71
2023/08/15 00:03:20;;;;;;;5.30;4.90;;;26.80;92.60;;;;;;5034204;28;20443;-71
2023/08/15 00:05:46;;;;;;;5.67;5.17;;;26.80;92.60;;;;;;5024427;28;21019;-71
2023/08/15 00:08:12;;;;;;;5.07;4.60;;;26.80;92.60;;;;;;5027117;23;21004;-71
2023/08/15 00:10:42;;;;;;;4.90;4.50;;;26.80;92.70;;;;;;5005108;28;20178;-71
2023/08/15 00:13:10;;;;;;;5.10;4.70;;;26.80;92.70;;;;;;4988179;28;20458;-71
2023/08/15 00:15:39;;;;;;;4.83;4.43;;;26.70;92.70;;;;;;4987922;28;20452;-72
2023/08/15 00:18:08;;;;;;;4.80;4.40;;;26.70;92.70;;;;;;5002879;28;20440;-71
2023/08/15 00:20:34;;;;;;;5.47;4.93;;;26.70;92.70;;;;;;4984788;28;20444;-72
2023/08/15 00:23:03;;;;;;;4.93;4.40;;;26.70;92.70;;;;;;4995024;28;20543;-72
2023/08/15 00:25:33;;;;;;;5.00;4.53;;;26.70;92.70;;;;;;5002890;28;20436;-72
2023/08/15 00:27:59;;;;;;;5.23;4.70;;;26.70;92.80;;;;;;5003108;28;20507;-72
2023/08/15 00:30:32;;;;;;;5.00;4.60;;;26.70;92.80;;;;;;5003301;28;20428;-70
2023/08/15 00:33:01;;;;;;;5.27;4.77;;;26.70;92.80;;;;;;5003244;28;20460;-72
2023/08/15 00:35:29;;;;;;;5.10;4.70;;;26.70;92.80;;;;;;5004783;28;20452;-71
2023/08/15 00:37:55;;;;;;;4.90;4.40;;;26.70;92.80;;;;;;4970966;28;20575;-72
2023/08/15 00:40:26;;;;;;;4.97;4.57;;;26.70;92.90;;;;;;5004057;28;20713;-70
2023/08/15 00:42:54;;;;;;;5.00;4.60;;;26.60;92.80;;;;;;4985919;28;20869;-72
2023/08/15 00:45:23;;;;;;;5.17;4.77;;;26.60;92.90;;;;;;4986755;28;21177;-70
2023/08/15 00:47:53;;;;;;;4.97;4.50;;;26.60;92.90;;;;;;4986804;28;20782;-72
2023/08/15 00:50:23;;;;;;;4.60;4.20;;;26.60;92.90;;;;;;4986962;28;20436;-70
2023/08/15 00:52:50;;;;;;;5.57;5.13;;;26.60;92.90;;;;;;5002487;28;20463;-72
2023/08/15 00:55:20;;;;;;;4.90;4.50;;;26.60;92.90;;;;;;5002859;28;20431;-72
2023/08/15 00:57:46;;;;;;;5.83;5.10;;;26.60;92.90;;;;;;5019548;28;20518;-72
2023/08/15 01:00:14;;;;;;;4.60;4.30;;;26.60;92.90;;;;;;5004489;28;20420;-72
2023/08/15 01:02:40;;;;;;;5.37;4.87;;;26.60;93.00;;;;;;4986803;28;20477;-71
2023/08/15 01:05:07;;;;;;;4.83;4.50;;;26.50;92.90;;;;;;5003742;28;20793;-71
2023/08/15 01:07:33;;;;;;;5.40;4.90;;;26.60;93.00;;;;;;4986176;28;20452;-72
2023/08/15 01:10:01;;;;;;;5.07;4.57;;;26.50;93.00;;;;;;4986991;28;20481;-72
2023/08/15 01:12:56;;;;;;;4.90;4.50;;;26.50;93.00;;;;;;4986658;28;20478;-71
2023/08/15 01:15:26;;;;;;;5.13;4.73;;;26.50;93.00;;;;;;4979220;28;20437;-72
2023/08/15 01:18:12;;;;;;;5.07;4.60;;;26.50;93.10;;;;;;5004969;28;20451;-72
2023/08/15 01:20:41;;;;;;;5.10;4.70;;;26.50;93.00;;;;;;5003700;28;20923;-72
2023/08/15 01:23:13;;;;;;;5.63;5.03;;;26.50;93.10;;;;;;5003892;28;20436;-72
2023/08/15 01:25:41;;;;;;;4.80;4.40;;;26.50;93.10;;;;;;5002492;28;20420;-72
2023/08/15 01:28:15;;;;;;;5.63;4.97;;;26.40;93.10;;;;;;5018488;28;20447;-72
2023/08/15 01:30:48;;;;;;;4.57;4.17;;;26.40;93.10;;;;;;5002705;28;20433;-72
2023/08/15 01:33:36;;;;;;;7.17;5.17;;;26.40;93.30;;;;;;4970448;28;20456;-71
2023/08/15 01:36:12;;;;;;;5.23;4.43;;;26.40;93.10;;;;;;4970759;28;20420;-72
2023/08/15 01:38:48;;;;;;;4.60;4.30;;;26.40;93.10;;;;;;4986434;28;20510;-70
2023/08/15 01:41:23;;;;;;;5.20;4.70;;;26.40;93.20;;;;;;4986138;28;20464;-72
2023/08/15 01:43:57;;;;;;;5.20;4.80;;;26.40;93.20;;;;;;4986424;28;20971;-72
2023/08/15 01:46:23;;;;;;;4.67;4.37;;;26.40;93.20;;;;;;4986765;28;20401;-71
2023/08/15 01:48:50;;;;;;;4.90;4.40;;;26.40;93.20;;;;;;4986397;28;20775;-70
2023/08/15 01:51:16;;;;;;;5.67;5.13;;;26.40;93.20;;;;;;4986235;28;20455;-72
2023/08/15 01:53:42;;;;;;;4.87;4.47;;;26.40;93.20;;;;;;4986135;28;20424;-72
2023/08/15 01:56:12;;;;;;;4.70;4.40;;;26.40;93.20;;;;;;4997646;28;20455;-72
2023/08/15 01:58:41;;;;;;;5.00;4.60;;;26.30;93.20;;;;;;5021542;28;20498;-71
2023/08/15 02:01:09;;;;;;;6.10;4.97;;;26.40;93.30;;;;;;5007561;28;20424;-72
2023/08/15 02:03:37;;;;;;;4.67;4.37;;;26.30;93.30;;;;;;4985296;28;20425;-72
2023/08/15 02:06:04;;;;;;;5.73;4.60;;;26.30;93.30;;;;;;4969393;28;20502;-71
2023/08/15 02:08:33;;;;;;;5.03;4.57;;;26.30;93.30;;;;;;4985687;28;20618;-72
2023/08/15 02:11:01;;;;;;;5.20;4.77;;;26.30;93.30;;;;;;4985596;28;20447;-72
2023/08/15 02:13:30;;;;;;;5.07;4.50;;;26.30;93.30;;;;;;4985514;28;21063;-72
2023/08/15 02:15:57;;;;;;;4.90;4.50;;;26.30;93.30;;;;;;5001954;28;20420;-72
2023/08/15 02:18:27;;;;;;;4.73;4.33;;;26.30;93.40;;;;;;4969253;28;20492;-72
2023/08/15 02:20:58;;;;;;;4.97;4.67;;;26.30;93.30;;;;;;4985226;28;20453;-70
2023/08/15 02:23:24;;;;;;;4.80;4.27;;;26.30;93.40;;;;;;4985421;28;20423;-71
2023/08/15 02:25:53;;;;;;;6.13;5.00;;;26.30;93.40;;;;;;5001830;28;20479;-71
2023/08/15 02:28:21;;;;;;;5.07;4.67;;;26.30;93.40;;;;;;5018301;28;20465;-69
2023/08/15 02:30:52;;;;;;;4.70;4.30;;;26.20;93.40;;;;;;4985860;28;20434;-71
2023/08/15 02:33:23;;;;;;;5.87;5.40;;;26.20;93.50;;;;;;5001587;28;20515;-72
2023/08/15 02:35:51;;;;;;;5.50;5.00;;;26.20;93.50;;;;;;5001492;28;21399;-71
2023/08/15 02:38:21;;;;;;;5.00;4.60;;;26.20;93.50;;;;;;5001532;28;21090;-71
2023/08/15 02:40:48;;;;;;;4.83;4.43;;;26.20;93.50;;;;;;4985628;28;20472;-72
2023/08/15 02:43:14;;;;;;;5.90;5.30;;;26.20;93.50;;;;;;4988857;28;20448;-72
2023/08/15 02:45:40;;;;;;;5.00;4.60;;;26.20;93.50;;;;;;4989318;28;20948;-72
2023/08/15 02:48:06;;;;;;;5.00;4.60;;;26.20;93.60;;;;;;5005516;28;20513;-72
2023/08/15 02:50:34;;;;;;;5.10;4.73;;;26.20;93.60;;;;;;4989212;28;20185;-72
2023/08/15 02:53:03;;;;;;;5.17;4.67;;;26.20;93.50;;;;;;5005012;28;20963;-71
2023/08/15 02:55:32;;;;;;;5.20;4.80;;;26.20;93.60;;;;;;4985710;28;20239;-71
2023/08/15 02:57:58;;;;;;;5.77;5.23;;;26.10;93.60;;;;;;5001925;28;20463;-72
2023/08/15 03:00:25;;;;;;;5.53;5.03;;;26.10;93.60;;;;;;4991960;28;20925;-69
2023/08/15 03:02:52;;;;;;;4.70;4.30;;;26.10;93.60;;;;;;4989382;28;20489;-70
2023/08/15 03:05:19;;;;;;;5.37;4.87;;;26.10;93.60;;;;;;5005065;28;21234;-70
2023/08/15 03:07:47;;;;;;;5.40;4.90;;;26.10;93.70;;;;;;4988697;28;20475;-72
2023/08/15 03:10:13;;;;;;;5.10;4.60;;;26.10;93.70;;;;;;4988672;28;20501;-72
2023/08/15 03:12:43;;;;;;;5.50;5.00;;;26.10;93.70;;;;;;5006012;28;20533;-70
2023/08/15 03:15:09;;;;;;;5.40;5.00;;;26.10;93.80;;;;;;4988617;28;20466;-71
2023/08/15 03:17:38;;;;;;;5.60;5.10;;;26.10;93.90;;;;;;5004904;28;20510;-72
2023/08/15 03:20:05;;;;;;;5.40;5.00;;;26.10;93.90;;;;;;5004613;28;20435;-71
2023/08/15 03:22:32;;;;;;;5.47;5.07;;;26.10;94.00;;;;;;4988485;28;20952;-72
2023/08/15 03:24:58;;;;;;;5.57;5.07;;;26.10;93.90;;;;;;4989799;28;20448;-71
2023/08/15 03:27:24;;;;;;;5.40;5.00;;;26.10;93.90;;;;;;5024213;28;20433;-71
2023/08/15 03:29:53;;;;;;;5.73;5.33;;;26.10;94.00;;;;;;5024712;28;20784;-72
2023/08/15 03:32:20;;;;;;;6.03;5.43;;;26.00;94.10;;;;;;4987876;28;20527;-72
2023/08/15 03:34:48;;;;;;;5.90;5.37;;;26.10;94.50;;;;;;4987746;28;21209;-72
2023/08/15 03:37:15;;;;;;;5.50;5.10;;;26.00;94.60;;;;;;5003748;28;20828;-72
2023/08/15 03:39:43;;;;;;;6.00;5.40;;;26.00;94.70;;;;;;5005772;28;20443;-72
2023/08/15 03:42:11;;;;;;;6.23;5.47;;;26.00;94.80;;;;;;4984014;28;20970;-72
2023/08/15 03:44:40;;;;;;;5.80;5.30;;;26.00;94.70;;;;;;5003703;28;20536;-71
2023/08/15 03:47:11;;;;;;;7.43;5.70;;;26.00;94.70;;;;;;5003714;28;20488;-71
2023/08/15 03:49:37;;;;;;;6.10;5.60;;;25.90;94.80;;;;;;5003771;28;20456;-72
2023/08/15 03:52:06;;;;;;;5.60;5.10;;;26.00;94.80;;;;;;5004918;28;20458;-72
2023/08/15 03:54:34;;;;;;;5.20;4.80;;;25.90;94.80;;;;;;5003133;28;20428;-71
2023/08/15 03:57:05;;;;;;;6.13;5.63;;;25.90;94.90;;;;;;4971959;28;20424;-71
2023/08/15 03:59:41;;;;;;;6.03;5.47;;;25.90;94.80;;;;;;5004370;28;20420;-71
2023/08/15 04:02:07;;;;;;;6.20;5.70;;;25.90;94.90;;;;;;4971510;28;20444;-72
2023/08/15 04:04:33;;;;;;;7.10;5.17;;;25.90;94.90;;;;;;5003911;28;20485;-71
2023/08/15 04:07:01;;;;;;;7.27;6.20;;;25.90;94.90;;;;;;4987524;28;20455;-71
2023/08/15 04:09:27;;;;;;;6.10;5.60;;;25.90;95.00;;;;;;5003908;28;20417;-72
2023/08/15 04:11:56;;;;;;;6.73;6.13;;;25.90;95.10;;;;;;4987985;28;20542;-72
2023/08/15 04:14:25;;;;;;;7.50;5.93;;;25.90;95.10;;;;;;4993776;28;20464;-72
2023/08/15 04:16:55;;;;;;;6.40;5.90;;;25.90;95.10;;;;;;5003849;28;20407;-72
2023/08/15 04:19:24;;;;;;;6.10;5.60;;;25.90;95.10;;;;;;5003706;28;20472;-72
2023/08/15 04:21:52;;;;;;;6.67;6.10;;;25.90;95.10;;;;;;5003532;28;20479;-72
2023/08/15 04:24:21;;;;;;;6.37;5.87;;;25.90;95.10;;;;;;4987142;28;20837;-72
2023/08/15 04:26:47;;;;;;;5.90;5.50;;;25.90;95.20;;;;;;5002973;28;20434;-71
2023/08/15 04:29:13;;;;;;;5.80;5.40;;;25.80;95.10;;;;;;4986565;28;20424;-71
2023/08/15 04:31:41;;;;;;;5.73;5.13;;;25.80;95.10;;;;;;5003350;28;20771;-69
2023/08/15 04:34:09;;;;;;;6.00;5.40;;;25.80;95.00;;;;;;4969477;28;20416;-70
2023/08/15 04:36:43;;;;;;;6.00;5.43;;;25.80;95.00;;;;;;5002612;28;20566;-70
2023/08/15 04:39:09;;;;;;;6.40;5.97;;;25.80;95.00;;;;;;4986211;28;20463;-70
2023/08/15 04:41:36;;;;;;;6.13;5.57;;;25.80;95.00;;;;;;5002987;28;20491;-70
2023/08/15 04:44:04;;;;;;;5.93;5.27;;;25.80;95.10;;;;;;5019391;28;20885;-70
2023/08/15 04:46:37;;;;;;;6.47;5.87;;;25.80;95.10;;;;;;5017986;28;20423;-70
2023/08/15 04:49:03;;;;;;;5.87;5.37;;;25.80;95.00;;;;;;4985797;28;20901;-71
2023/08/15 04:51:31;;;;;;;5.87;5.27;;;25.70;95.00;;;;;;5001700;28;20498;-70
2023/08/15 04:53:58;;;;;;;5.53;5.07;;;25.80;95.10;;;;;;5003654;28;20440;-70
2023/08/15 04:56:27;;;;;;;9.83;5.20;;;25.70;95.00;;;;;;5001279;28;20475;-70
2023/08/15 04:58:56;;;;;;;6.43;5.93;;;25.70;95.00;;;;;;4969838;28;20459;-70
2023/08/15 05:01:25;;;;;;;5.97;5.47;;;25.70;95.10;;;;;;4986380;28;20456;-70
2023/08/15 05:03:51;;;;;;;4.97;4.57;;;25.70;95.10;;;;;;4985913;28;21129;-70
2023/08/15 05:06:17;;;;;;;5.90;5.40;;;25.70;95.10;;;;;;5002129;28;20448;-70
2023/08/15 05:08:43;;;;;;;5.80;5.30;;;25.70;95.10;;;;;;5002735;28;20454;-71
2023/08/15 05:11:10;;;;;;;5.40;5.00;;;25.70;95.10;;;;;;5001885;28;20763;-70
2023/08/15 05:13:36;;;;;;;6.37;5.77;;;25.70;95.20;;;;;;5001178;28;20811;-69
2023/08/15 05:16:03;;;;;;;5.63;4.80;;;25.70;95.20;;;;;;4985395;28;21021;-70
2023/08/15 05:18:29;;;;;;;5.03;4.63;;;25.70;95.10;;;;;;4975567;28;20451;-71
2023/08/15 05:20:58;;;;;;;5.60;5.10;;;25.70;95.20;;;;;;5001601;28;20426;-70
2023/08/15 05:23:27;;;;;;;5.80;5.20;;;25.70;95.20;;;;;;4985557;28;20451;-70
2023/08/15 05:25:55;;;;;;;5.50;5.00;;;25.70;95.20;;;;;;5001113;28;20504;-70
2023/08/15 05:28:21;;;;;;;5.57;5.17;;;25.70;95.20;;;;;;5001724;28;20426;-70
2023/08/15 05:30:53;;;;;;;5.47;5.00;;;25.60;95.20;;;;;;5018734;28;20441;-71
2023/08/15 05:33:20;;;;;;;5.77;5.30;;;25.60;95.20;;;;;;5017550;28;20439;-71
2023/08/15 05:35:52;;;;;;;5.10;4.70;;;25.60;95.20;;;;;;5000652;28;20886;-70
2023/08/15 05:38:17;;;;;;;5.30;4.67;;;25.60;95.20;;;;;;4999487;28;20470;-70
2023/08/15 05:40:44;;;;;;;5.97;5.47;;;25.60;95.20;;;;;;4984136;28;20940;-70
2023/08/15 05:43:12;;;;;;;5.10;4.70;;;25.60;95.20;;;;;;5002467;28;20515;-70
2023/08/15 05:45:43;;;;;;;6.47;5.20;;;25.60;95.30;;;;;;5001994;28;20823;-69
2023/08/15 05:48:09;;;;;;;5.40;4.90;;;25.60;95.30;;;;;;5002104;28;20475;-70
2023/08/15 05:50:35;;;;;;;5.70;5.20;;;25.60;95.30;;;;;;5001837;28;20942;-70
2023/08/15 05:53:01;;;;;;;5.03;4.63;;;25.60;95.30;;;;;;5001950;28;20456;-70
2023/08/15 05:55:30;;;;;;;6.33;5.43;;;25.50;95.30;;;;;;5002026;28;20255;-70
2023/08/15 05:57:56;;;;;;;7.23;5.40;;;25.50;95.30;;;;;;5001516;28;20813;-70
2023/08/15 06:00:22;;;;;;;5.20;4.80;;;25.50;95.30;;;;;;4985205;28;20935;-72
2023/08/15 06:02:48;;;;;;;5.57;4.87;;;25.50;95.30;;;;;;5000789;28;20455;-70
2023/08/15 06:05:14;;;;;;;5.70;5.20;;;25.50;95.30;;;;;;5000852;28;20197;-70
2023/08/15 06:07:41;;;;;;;6.00;5.50;;;25.50;95.30;;;;;;5002696;28;20435;-70
2023/08/15 06:10:09;;;;;;;5.07;4.67;;;25.50;95.30;;;;;;5001520;28;20904;-70
2023/08/15 06:12:35;;;;;;;7.87;4.90;;;25.50;95.40;;;;;;5001018;28;20445;-73
2023/08/15 06:15:04;;;;;;;5.63;5.10;;;25.50;95.80;;;;;;5002226;28;20405;-71
2023/08/15 06:17:30;;;;;;;7.37;5.50;;;25.50;95.50;;;;;;5003743;28;20461;-71
2023/08/15 06:19:55;;;;;;;5.30;4.90;;;25.50;95.50;;;;;;5005198;28;20413;-71
2023/08/15 06:22:22;;;;;;;5.70;4.57;;;25.50;95.50;;;;;;5004501;28;20537;-71
2023/08/15 06:24:48;;;;;;;5.47;4.97;;;25.40;95.50;;;;;;4988385;28;20221;-71
2023/08/15 06:27:16;;;;;;;4.67;4.27;;;25.40;95.50;;;;;;4988776;28;20501;-72
2023/08/15 06:29:41;;;;;;;5.07;4.50;;;25.40;95.50;;;;;;5006519;28;20407;-71
2023/08/15 06:32:08;;;;;;;5.27;4.47;;;25.40;95.50;;;;;;5006400;28;20447;-71
2023/08/15 06:34:37;;;;;;;4.70;4.23;;;25.40;95.50;;;;;;5004893;28;20408;-71
2023/08/15 06:37:04;;;;;;;5.10;4.70;;;25.40;95.50;;;;;;5006750;28;20432;-71
2023/08/15 06:39:32;;;;;;;4.83;4.43;;;25.40;95.50;;;;;;5021071;28;20448;-72
2023/08/15 06:42:03;;;;;;;5.30;4.80;;;25.40;95.50;;;;;;5003778;28;20499;-71
2023/08/15 06:44:29;;;;;;;5.03;4.53;;;25.40;95.60;;;;;;5005620;28;21141;-70
2023/08/15 06:47:00;;;;;;;4.77;4.33;;;25.40;95.60;;;;;;5003932;28;20416;-71
2023/08/15 06:49:28;;;;;;;5.00;4.60;;;25.40;95.50;;;;;;5003937;28;20416;-71
2023/08/15 06:51:56;;;;;;;5.37;4.30;;;25.40;95.50;;;;;;5004005;28;20436;-71
2023/08/15 06:54:22;;;;;;;4.83;4.20;;;25.40;95.60;;;;;;5004833;28;20808;-71
2023/08/15 06:56:48;;;;;;;5.17;4.73;;;25.40;95.60;;;;;;4988584;28;20449;-70
2023/08/15 06:59:23;;;;;;;6.20;5.60;;;25.30;95.60;;;;;;5003561;28;21011;-71
2023/08/15 07:01:52;;;;;;;4.73;4.40;;;25.30;95.70;;;;;;5005308;28;20467;-70
2023/08/15 07:04:19;;;;;;;5.53;4.90;;;25.30;95.70;;;;;;4971343;28;20428;-71
2023/08/15 07:06:45;;;;;;;6.73;5.63;;;25.30;95.60;;;;;;5019224;28;20486;-71
2023/08/15 07:09:14;;;;;;;5.67;4.37;;;25.30;95.60;;;;;;5003314;28;20409;-71
2023/08/15 07:11:42;;;;;;;5.40;4.90;;;25.30;95.50;;;;;;5003394;28;20479;-70
2023/08/15 07:14:08;;;;;;;4.87;4.47;;;25.30;95.60;;;;;;4987355;28;20467;-71
2023/08/15 07:16:34;;;;;;;4.97;4.57;;;25.30;95.50;;;;;;5019728;28;20401;-70
2023/08/15 07:19:04;;;;;;;5.60;4.47;;;25.30;95.50;;;;;;5003165;28;20551;-71
2023/08/15 07:21:33;;;;;;;5.30;4.80;;;25.20;95.40;;;;;;5003382;28;20534;-71
2023/08/15 07:24:03;;;;;;;4.80;4.40;;;25.20;95.50;;;;;;5003472;28;20480;-71
2023/08/15 07:26:29;;;;;;;4.53;4.13;;;25.20;95.50;;;;;;5004476;28;20463;-71
2023/08/15 07:28:57;;;;;;;5.07;4.60;;;25.20;95.60;;;;;;5002988;28;20401;-71
2023/08/15 07:31:25;;;;;;;5.20;4.50;;;25.20;95.60;;;;;;5003777;28;20448;-71
2023/08/15 07:33:51;;;;;;;4.73;4.33;;;25.20;95.50;;;;;;5002673;28;20401;-71
2023/08/15 07:36:18;;;;;;;5.20;4.50;;;25.20;95.50;;;;;;4985868;28;20448;-71
2023/08/15 07:38:46;;;;;;;4.03;3.73;;;25.20;95.50;;;;;;4999983;28;20559;-71
2023/08/15 07:41:14;;;;;;;6.30;4.40;;;25.20;95.50;;;;;;5003516;28;20479;-70
2023/08/15 07:43:43;;;;;;;4.67;4.10;;;25.20;95.50;;;;;;5003366;28;21026;-71
2023/08/15 07:46:11;;;;;;;3.80;3.50;;;25.20;95.50;;;;;;5003535;28;20400;-71
2023/08/15 07:48:38;;;;;;;4.27;3.97;;;25.20;95.50;;;;;;4986473;28;20450;-70
2023/08/15 07:51:04;;;;;;;4.50;4.10;;;25.20;95.50;;;;;;5001645;28;20420;-70
2023/08/15 07:53:32;;;;;;;4.67;4.30;;;25.20;95.50;;;;;;5003696;28;20447;-71
2023/08/15 07:55:58;;;;;;;4.10;3.70;;;25.20;95.50;;;;;;5003890;28;20409;-71
2023/08/15 07:58:27;;;;;;;4.00;3.53;;;25.10;95.40;;;;;;5002974;28;21184;-70
2023/08/15 08:00:55;;;;;;;3.83;3.53;;;25.10;95.40;;;;;;5003349;28;21451;-71
2023/08/15 08:03:21;;;;;;;4.00;3.67;;;25.10;95.40;;;;;;5003695;28;20530;-70
2023/08/15 08:05:47;;;;;;;4.47;4.07;;;25.10;95.40;;;;;;4986276;28;20176;-71
2023/08/15 08:08:14;;;;;;;4.40;4.00;;;25.10;95.40;;;;;;5003527;28;21289;-71
2023/08/15 08:10:45;;;;;;;3.60;3.30;;;25.10;95.40;;;;;;4986080;28;20447;-70
2023/08/15 08:13:16;;;;;;;4.77;4.47;;;25.10;95.40;;;;;;4986050;28;20512;-71
2023/08/15 08:18:31;;;;;;;3.80;3.50;;;25.10;95.40;;;;;;4956455;28;20921;-73
2023/08/15 08:21:05;;;;;;;4.10;3.80;;;25.10;95.40;;;;;;4960024;28;20475;-73
2023/08/15 08:23:32;;;;;;;4.07;3.73;;;25.10;95.40;;;;;;4944225;29;20411;-72
2023/08/15 08:26:00;;;;;;;4.40;4.10;;;25.10;95.30;;;;;;4944545;29;20457;-73
2023/08/15 08:28:26;;;;;;;4.73;3.70;;;25.10;95.30;;;;;;4944347;29;20427;-73
2023/08/15 08:30:52;;;;;;;4.20;3.90;;;25.10;95.20;;;;;;4944124;29;20924;-72
2023/08/15 08:33:21;;;;;;;3.63;3.33;;;25.10;95.20;;;;;;4945695;29;20463;-73
2023/08/15 08:35:49;;;;;;;3.73;3.30;;;25.10;95.20;;;;;;4943865;29;20523;-73
2023/08/15 08:38:15;;;;;;;4.20;3.80;;;25.10;95.20;;;;;;4925786;28;20462;-73
2023/08/15 08:40:42;;;;;;;4.90;3.70;;;25.10;95.10;;;;;;4927486;29;20449;-73
2023/08/15 08:43:10;;;;;;;3.80;3.50;;;25.10;95.20;;;;;;4943498;29;20435;-73
2023/08/15 08:45:42;;;;;;;7.40;3.70;;;25.10;95.20;;;;;;4945051;29;20406;-73
2023/08/15 08:48:11;;;;;;;4.17;3.77;;;25.10;95.20;;;;;;4943928;29;20434;-73
2023/08/15 08:50:41;;;;;;;3.63;3.33;;;25.10;95.20;;;;;;4944316;29;20442;-72
2023/08/15 08:53:07;;;;;;;3.80;3.50;;;25.10;95.30;;;;;;4943830;29;20432;-72
2023/08/15 08:55:34;;;;;;;4.17;3.30;;;25.10;95.30;;;;;;4945639;29;20423;-73
2023/08/15 08:58:03;;;;;;;3.93;3.50;;;25.20;95.20;;;;;;4944630;29;20596;-72
2023/08/15 09:00:37;;;;;;;3.80;3.50;;;25.10;95.10;;;;;;4944732;29;20411;-71
2023/08/15 09:03:05;;;;;;;4.00;3.70;;;25.20;95.10;;;;;;4928119;29;20452;-73
2023/08/15 09:05:32;;;;;;;4.17;3.70;;;25.20;95.10;;;;;;4928404;29;20425;-73
2023/08/15 09:08:00;;;;;;;3.40;3.10;;;25.20;95.20;;;;;;4945168;29;20469;-73
2023/08/15 09:10:30;;;;;;;3.70;3.40;;;25.20;95.20;;;;;;4929137;29;20550;-73
2023/08/15 09:13:00;;;;;;;4.90;3.67;;;25.20;95.20;;;;;;4928451;29;20504;-73
2023/08/15 09:15:26;;;;;;;3.47;3.17;;;25.20;95.30;;;;;;4928931;29;20433;-73
2023/08/15 09:18:00;;;;;;;3.60;3.30;;;25.20;95.20;;;;;;4944195;29;21289;-73
2023/08/15 09:20:26;;;;;;;3.70;3.40;;;25.20;95.20;;;;;;4944739;29;21234;-73
2023/08/15 09:22:56;;;;;;;2.93;2.73;;;25.30;95.20;;;;;;4959056;28;20435;-74
2023/08/15 09:25:30;;;;;;;3.70;3.40;;;25.30;95.20;;;;;;4941670;29;20478;-74
2023/08/15 09:27:59;;;;;;;5.70;3.20;;;25.30;95.00;;;;;;4957343;28;20420;-74
2023/08/15 09:30:25;;;;;;;3.50;3.20;;;25.30;95.00;;;;;;4941506;29;21175;-74
2023/08/15 09:32:53;;;;;;;3.40;3.20;;;25.30;95.00;;;;;;4957259;28;20461;-74
2023/08/15 09:35:19;;;;;;;3.20;3.00;;;25.40;95.00;;;;;;4925358;29;20442;-74
2023/08/15 09:37:47;;;;;;;3.50;3.20;;;25.40;95.00;;;;;;4939080;28;20482;-73
2023/08/15 09:40:17;;;;;;;3.13;2.93;;;25.40;95.10;;;;;;4943350;29;20414;-74
2023/08/15 09:42:48;;;;;;;4.30;3.90;;;25.40;95.10;;;;;;4942142;29;20462;-74
2023/08/15 09:45:16;;;;;;;3.50;3.30;;;25.40;95.00;;;;;;4941942;29;20450;-74
2023/08/15 09:47:45;;;;;;;3.47;3.17;;;25.40;95.00;;;;;;4941897;29;20466;-74
2023/08/15 09:50:14;;;;;;;4.27;3.20;;;25.40;95.00;;;;;;4942736;28;20435;-74
2023/08/15 09:52:48;;;;;;;4.43;4.13;;;25.50;95.00;;;;;;4913150;29;20442;-74
2023/08/15 09:55:16;;;;;;;3.40;3.17;;;25.50;94.90;;;;;;4930743;29;20953;-75
2023/08/15 09:57:44;;;;;;;3.73;3.43;;;25.50;94.90;;;;;;4946339;29;20466;-74
2023/08/15 10:00:12;;;;;;;3.80;3.50;;;25.50;94.90;;;;;;4945897;29;20512;-74
2023/08/15 10:03:01;;;;;;;3.37;3.17;;;25.50;95.00;;;;;;4945283;29;20458;-72
2023/08/15 10:05:32;;;;;;;3.10;2.90;;;25.50;95.00;;;;;;4947028;29;20419;-74
2023/08/15 10:08:01;;;;;;;3.57;2.90;;;25.60;95.10;;;;;;4946276;29;20510;-73
2023/08/15 10:10:30;;;;;;;3.40;3.10;;;25.60;95.10;;;;;;4961312;28;20510;-73
2023/08/15 10:12:57;;;;;;;3.30;3.00;;;25.60;95.10;;;;;;4929278;29;20499;-74
2023/08/15 10:15:24;;;;;;;4.40;2.90;;;25.60;95.20;;;;;;4944723;29;20581;-74
2023/08/15 10:17:57;;;;;;;3.47;3.17;;;25.70;95.10;;;;;;4929215;29;20478;-74
2023/08/15 10:20:23;;;;;;;3.57;3.30;;;25.70;95.10;;;;;;4946196;28;20820;-74
2023/08/15 10:22:53;;;;;;;3.40;2.80;;;25.70;95.10;;;;;;4946136;28;20435;-74
2023/08/15 10:25:22;;;;;;;3.53;3.23;;;25.70;95.10;;;;;;4946299;28;20414;-75
2023/08/15 10:27:52;;;;;;;3.27;3.07;;;25.70;95.00;;;;;;4945797;28;20406;-74
2023/08/15 10:30:33;;;;;;;3.40;3.10;;;25.70;94.90;;;;;;4960940;28;20434;-74
2023/08/15 10:33:15;;;;;;;3.07;2.87;;;25.80;95.00;;;;;;4944396;29;20446;-74
2023/08/15 10:35:51;;;;;;;2.93;2.73;;;25.80;94.90;;;;;;4928796;29;20429;-74
2023/08/15 10:38:23;;;;;;;3.23;3.00;;;25.80;95.00;;;;;;4942634;29;20510;-74
2023/08/15 10:40:53;;;;;;;3.30;3.00;;;25.80;94.90;;;;;;4959983;28;20429;-74
2023/08/15 10:43:30;;;;;;;2.80;2.60;;;25.90;94.90;;;;;;4948224;28;20508;-75
2023/08/15 10:46:04;;;;;;;3.63;3.17;;;25.90;94.90;;;;;;4964990;28;20901;-73
2023/08/15 10:48:55;;;;;;;3.30;3.00;;;25.90;94.90;;;;;;4980781;28;20406;-75
2023/08/15 10:51:33;;;;;;;3.30;3.00;;;25.90;94.80;;;;;;4981218;28;20456;-74
2023/08/15 10:54:03;;;;;;;3.93;3.20;;;26.00;94.70;;;;;;4948552;28;20445;-74
2023/08/15 10:56:37;;;;;;;3.70;3.40;;;26.00;94.70;;;;;;4966544;28;20479;-74
2023/08/15 10:59:15;;;;;;;3.40;3.20;;;26.00;94.70;;;;;;4966528;28;20446;-74
2023/08/15 11:01:47;;;;;;;3.53;3.00;;;26.00;94.50;;;;;;4963873;28;20552;-73
2023/08/15 11:04:15;;;;;;;3.60;3.30;;;26.00;94.50;;;;;;4965737;28;20497;-74
2023/08/15 11:06:52;;;;;;;3.40;3.20;;;26.10;94.50;;;;;;4964705;28;20442;-74
2023/08/15 11:09:19;;;;;;;3.20;2.90;;;26.10;94.40;;;;;;4948838;28;20426;-74
2023/08/15 11:11:50;;;;;;;3.13;2.83;;;26.10;94.40;;;;;;4947018;28;20447;-74
2023/08/15 11:14:21;;;;;;;4.30;3.40;;;26.10;94.30;;;;;;4945700;29;20439;-74
2023/08/15 11:16:54;;;;;;;3.60;3.07;;;26.20;94.20;;;;;;4945639;29;20474;-74
2023/08/15 11:19:21;;;;;;;3.80;3.50;;;26.20;94.20;;;;;;4945436;29;21203;-75
2023/08/15 11:21:47;;;;;;;3.70;3.40;;;26.20;94.20;;;;;;4945353;29;21022;-74
2023/08/15 11:24:16;;;;;;;3.17;2.80;;;26.20;94.10;;;;;;4945779;29;20424;-74
2023/08/15 11:26:42;;;;;;;3.50;3.30;;;26.30;94.10;;;;;;5049504;23;20865;-73
2023/08/15 11:29:10;;;;;;;5.47;3.70;;;26.30;94.10;;;;;;4989109;28;20448;-72
2023/08/15 11:31:38;;;;;;;3.97;3.57;;;26.30;94.00;;;;;;5011763;28;20517;-72
2023/08/15 11:34:05;;;;;;;4.20;3.20;;;26.30;94.00;;;;;;5008382;28;20481;-73
2023/08/15 11:36:31;;;;;;;4.90;3.87;;;26.40;94.00;;;;;;5026251;28;20388;-72
2023/08/15 11:39:06;;;;;;;3.30;3.00;;;26.40;94.00;;;;;;5026337;28;20534;-72
2023/08/15 11:41:35;;;;;;;3.37;3.17;;;26.40;94.00;;;;;;5026245;28;21030;-72
2023/08/15 11:44:02;;;;;;;3.80;3.50;;;26.40;94.00;;;;;;4992076;28;20439;-72
2023/08/15 11:46:28;;;;;;;4.20;3.60;;;26.40;93.90;;;;;;4991978;28;20439;-72
2023/08/15 11:48:55;;;;;;;3.60;3.27;;;26.40;93.80;;;;;;5007527;28;20496;-73
2023/08/15 11:51:20;;;;;;;4.30;3.90;;;26.40;93.70;;;;;;5025850;28;20451;-72
2023/08/15 11:53:56;;;;;;;3.80;3.50;;;26.50;93.70;;;;;;5007720;28;20437;-72
2023/08/15 11:56:22;;;;;;;3.73;3.43;;;26.50;93.70;;;;;;5007640;28;20604;-72
2023/08/15 11:58:52;;;;;;;4.13;3.60;;;26.50;93.70;;;;;;4991624;28;20467;-73
2023/08/15 12:01:27;;;;;;;4.30;3.90;;;26.50;93.70;;;;;;5007325;28;20913;-72
2023/08/15 12:03:53;;;;;;;4.10;3.80;;;26.50;93.70;;;;;;4991164;28;20467;-72
2023/08/15 12:06:20;;;;;;;4.50;3.30;;;26.50;93.70;;;;;;5008647;28;20502;-72
2023/08/15 12:08:46;;;;;;;3.90;3.60;;;26.60;93.70;;;;;;5025836;28;20495;-72
2023/08/15 12:11:18;;;;;;;3.70;3.40;;;26.60;93.70;;;;;;5024765;28;20414;-72
2023/08/15 12:13:45;;;;;;;3.47;3.17;;;26.60;93.70;;;;;;5007372;28;20443;-72
2023/08/15 12:16:13;;;;;;;3.83;3.43;;;26.60;93.70;;;;;;5006709;28;20457;-73
2023/08/15 12:18:40;;;;;;;4.23;3.83;;;26.70;93.70;;;;;;5024583;28;20546;-72
2023/08/15 12:21:07;;;;;;;5.13;3.60;;;26.60;93.60;;;;;;5007514;28;20458;-72
2023/08/15 12:23:36;;;;;;;3.97;3.67;;;26.70;94.00;;;;;;5007343;28;20419;-73
2023/08/15 12:26:04;;;;;;;3.90;3.60;;;26.70;93.70;;;;;;5006618;28;20478;-72
2023/08/15 12:28:30;;;;;;;4.00;3.70;;;26.70;93.60;;;;;;5006022;28;20414;-72
2023/08/15 12:30:56;;;;;;;5.03;3.43;;;26.70;93.40;;;;;;5005789;28;20783;-72
2023/08/15 12:33:25;;;;;;;3.63;3.33;;;26.80;93.30;;;;;;5024028;28;20520;-72
2023/08/15 12:35:51;;;;;;;8.47;3.70;;;26.80;93.20;;;;;;5006316;28;20431;-73
2023/08/15 12:38:17;;;;;;;6.43;3.67;;;26.80;93.30;;;;;;5005878;28;20589;-72
2023/08/15 12:40:43;;;;;;;7.00;4.10;;;26.80;93.20;;;;;;5024381;28;20161;-72
2023/08/15 12:43:12;;;;;;;4.63;3.70;;;26.80;93.30;;;;;;5024656;28;21078;-73
2023/08/15 12:45:38;;;;;;;3.83;3.43;;;26.90;93.30;;;;;;5005997;28;20448;-72
2023/08/15 12:48:04;;;;;;;3.83;3.40;;;26.90;93.30;;;;;;5006350;28;20403;-72
2023/08/15 12:50:30;;;;;;;3.83;3.43;;;26.90;93.30;;;;;;5006301;28;20458;-72
2023/08/15 12:52:56;;;;;;;5.90;4.00;;;26.90;93.30;;;;;;5006277;28;20513;-72
2023/08/15 12:55:23;;;;;;;3.83;3.53;;;26.90;93.20;;;;;;5006246;28;21301;-73
2023/08/15 12:57:51;;;;;;;3.50;3.10;;;27.00;93.30;;;;;;5006160;28;20538;-72